Portada
METAR-TAF:

METAR-TAF

Aeroports :

Chlef, Algèria

latitud: 36-13N, longitud: 001-20E, altitud: 143 m

Observació

L'informe es va fer fa 25 minuts, a les 15:00 UTC
Vent 10 kt del Nord/Nord-Est
Temperatura 36°C
Humitat 27%
Pressió 1017 hPa
Visibilitat 10 km o més
sense núvols per sota de 1500 mi sense presència de cumulonimbus.

METAR: DAOI 241500Z 02010KT CAVOK 36/14 Q1017

Hora: 16:25 (15:25 UTC)

Pronòstic

L'informe es va fer fa 4 hores i 25 minuts, a les 11:00 UTC
Pronòstic vàlid del 24 a les 12 UTC al 25 a les 12 UTC
Vent 11 kt del Nord-Est
Visibilitat 10 km o més
sense núvols per sota de 1500 mi sense presència de cumulonimbus.
Evolucionant progressivament
l' 24 a les 20 UTC al 24 a les 22 UTC
Vent 2 kt amb direcció variable
Evolucionant progressivament
l' 25 a les 10 UTC al 25 a les 12 UTC
Vent 12 kt del Est/Nord-Est

TAF: DAOI 241100Z 2412/2512 04011KT CAVOK BECMG 2420/2422 VRB02KT BECMG 2510/2512 06012KT

Observacions i pronòstics meteorològics de més de 4000 aeroports (METAR i TAF).

Les estacions disponibles són els punts grocs i vermells al mapa.

Posi el ratolí al punt desitjat per veure el nom de l'estació.

Feu clic per veure les observacions i els pronòstics meteorològics.

Per canviar el mapa: feu clic els botons verds amb una creu de color negre per apropar; al botó verd amb un guió per allunyar la imatge; o en les fletxes verdes per a mapes adjacents.


METAR-TAF: